Time;durP1;ratioP1;P1;durP2;ratioP2;P2;SDS_P1;SDS_P2;PMS_P1;PMS_P2;Temp;Humidity;BMP_temperature;BMP_pressure;BME280_temperature;BME280_humidity;BME280_pressure;Samples;Min_cycle;Max_cycle;Signal;HPM_P1;HPM_P2
2022/05/07 00:01:47;;;;;;;4.63;2.37;;;;;8.20;94639.00;;;;7390220;19;20153;-77
2022/05/07 00:04:15;;;;;;;8.43;2.57;;;;;8.20;94632.00;;;;7390925;19;20137;-76
2022/05/07 00:06:43;;;;;;;6.67;2.60;;;;;8.10;94635.00;;;;7391557;19;20637;-76
2022/05/07 00:09:17;;;;;;;3.53;2.10;;;;;8.10;94637.00;;;;7390112;19;20129;-77
2022/05/07 00:11:51;;;;;;;5.00;2.57;;;;;8.10;94635.00;;;;7392491;19;20160;-77
2022/05/07 00:14:26;;;;;;;3.43;2.30;;;;;8.00;94630.00;;;;7389878;19;20220;-76
2022/05/07 00:19:47;;;;;;;3.80;2.20;;;;;8.00;94633.00;;;;7391392;19;20125;-76
2022/05/07 00:22:15;;;;;;;3.90;2.70;;;;;8.00;94627.00;;;;7389552;19;20505;-76
2022/05/07 00:24:43;;;;;;;8.50;2.67;;;;;8.00;94625.00;;;;7393186;19;20149;-76
2022/05/07 00:27:17;;;;;;;4.37;2.50;;;;;8.10;94630.00;;;;7388422;19;20529;-76
2022/05/07 00:29:44;;;;;;;6.43;2.43;;;;;8.00;94621.00;;;;7382196;19;20251;-77
2022/05/07 00:32:12;;;;;;;5.90;2.60;;;;;8.10;94635.00;;;;7391856;19;20627;-76
2022/05/07 00:34:46;;;;;;;6.57;2.63;;;;;8.10;94622.00;;;;7390124;19;20611;-76
2022/05/07 00:37:13;;;;;;;4.90;2.27;;;;;8.10;94622.00;;;;7389465;19;20129;-76
2022/05/07 00:39:41;;;;;;;4.50;2.40;;;;;8.00;94618.00;;;;7388994;19;20149;-77
2022/05/07 00:42:15;;;;;;;4.90;2.47;;;;;8.10;94624.00;;;;7390327;19;20165;-76
2022/05/07 00:44:43;;;;;;;3.83;2.47;;;;;8.20;94612.00;;;;7389511;19;20129;-76
2022/05/07 00:47:26;;;;;;;4.13;1.90;;;;;8.10;94619.00;;;;7387622;19;20548;-77
2022/05/07 00:52:47;;;;;;;3.63;2.43;;;;;8.10;94609.00;;;;7388755;19;20145;-76
2022/05/07 00:55:23;;;;;;;5.57;2.43;;;;;8.10;94604.00;;;;7389103;19;20127;-76
2022/05/07 00:58:04;;;;;;;4.00;2.47;;;;;8.20;94604.00;;;;7389758;19;20552;-77
2022/05/07 01:00:39;;;;;;;3.63;2.20;;;;;8.20;94594.00;;;;7388855;19;20596;-77
2022/05/07 01:03:06;;;;;;;3.97;2.47;;;;;8.20;94597.00;;;;7389092;19;20145;-77
2022/05/07 01:05:34;;;;;;;4.87;3.10;;;;;8.10;94596.00;;;;7395589;19;20156;-77
2022/05/07 01:08:10;;;;;;;8.23;2.73;;;;;8.10;94593.00;;;;7396438;19;20141;-77
2022/05/07 01:10:39;;;;;;;4.17;2.67;;;;;8.00;94605.00;;;;7395574;19;20181;-77
2022/05/07 01:13:07;;;;;;;4.93;2.73;;;;;8.10;94594.00;;;;7399530;19;20167;-77
2022/05/07 01:15:53;;;;;;;4.43;2.30;;;;;7.90;94599.00;;;;7397023;19;20596;-76
2022/05/07 01:18:21;;;;;;;8.20;2.63;;;;;7.90;94600.00;;;;7395740;19;20570;-76
2022/05/07 01:20:55;;;;;;;4.23;2.43;;;;;7.90;94599.00;;;;7395796;19;20145;-77
2022/05/07 01:23:24;;;;;;;5.90;2.77;;;;;7.90;94597.00;;;;7399236;19;20584;-76
2022/05/07 01:25:55;;;;;;;43.90;4.13;;;;;7.80;94603.00;;;;7397265;19;20136;-76
2022/05/07 01:28:29;;;;;;;5.63;3.13;;;;;7.70;94609.00;;;;7397078;19;20128;-76
2022/05/07 01:30:56;;;;;;;7.50;3.27;;;;;7.80;94608.00;;;;7395404;19;20156;-77
2022/05/07 01:33:24;;;;;;;6.87;3.20;;;;;7.70;94602.00;;;;7397445;19;20129;-77
2022/05/07 01:35:58;;;;;;;3.40;2.60;;;;;7.70;94600.00;;;;7397466;19;20149;-77
2022/05/07 01:38:25;;;;;;;5.90;3.00;;;;;7.70;94604.00;;;;7391859;19;20147;-77
2022/05/07 01:40:53;;;;;;;4.37;3.07;;;;;7.80;94602.00;;;;7398065;19;20121;-77
2022/05/07 01:43:28;;;;;;;8.50;3.00;;;;;7.90;94598.00;;;;7396287;19;20603;-77
2022/05/07 01:45:56;;;;;;;4.90;2.70;;;;;7.80;94602.00;;;;7395444;19;20144;-76
2022/05/07 01:48:23;;;;;;;4.57;2.80;;;;;7.70;94602.00;;;;7398076;19;20167;-76
2022/05/07 01:50:58;;;;;;;8.80;3.13;;;;;7.80;94599.00;;;;7394198;19;20137;-77
2022/05/07 01:53:25;;;;;;;4.60;3.10;;;;;7.80;94603.00;;;;7394974;19;20129;-77
2022/05/07 01:55:56;;;;;;;5.57;2.83;;;;;7.70;94603.00;;;;7394803;19;20170;-77
2022/05/07 01:58:45;;;;;;;4.20;2.73;;;;;7.60;94601.00;;;;7392855;19;20168;-76
2022/05/07 02:01:20;;;;;;;5.93;2.77;;;;;7.70;94594.00;;;;7391496;19;20196;-77
2022/05/07 02:03:54;;;;;;;3.30;3.00;;;;;7.60;94599.00;;;;7394708;19;20146;-77
2022/05/07 02:06:21;;;;;;;5.30;2.60;;;;;7.60;94602.00;;;;7395093;19;20190;-76
2022/05/07 02:08:49;;;;;;;8.47;3.00;;;;;7.60;94594.00;;;;7394075;19;20473;-76
2022/05/07 02:11:23;;;;;;;8.40;3.10;;;;;7.60;94598.00;;;;7392151;19;20173;-77
2022/05/07 02:13:50;;;;;;;5.40;3.00;;;;;7.50;94607.00;;;;7396517;19;20158;-77
2022/05/07 02:16:18;;;;;;;3.83;2.90;;;;;7.50;94601.00;;;;7394233;19;20603;-77
2022/05/07 02:18:52;;;;;;;7.30;2.67;;;;;7.50;94603.00;;;;7396035;19;20149;-77
2022/05/07 02:21:19;;;;;;;5.23;2.97;;;;;7.50;94603.00;;;;7390825;19;20145;-77
2022/05/07 02:23:47;;;;;;;4.70;2.90;;;;;7.40;94599.00;;;;7396032;19;20632;-77
2022/05/07 02:26:21;;;;;;;4.50;3.10;;;;;7.50;94597.00;;;;7394280;19;20145;-78
2022/05/07 02:28:48;;;;;;;6.10;3.03;;;;;7.40;94600.00;;;;7393712;19;20142;-77
2022/05/07 02:31:16;;;;;;;7.43;3.07;;;;;7.40;94594.00;;;;7393322;19;20145;-77
2022/05/07 02:33:51;;;;;;;4.30;3.00;;;;;7.50;94591.00;;;;7393627;19;20520;-77
2022/05/07 02:36:18;;;;;;;4.00;2.60;;;;;7.50;94595.00;;;;7397131;19;20125;-77
2022/05/07 02:38:46;;;;;;;4.50;2.60;;;;;7.60;94591.00;;;;7393769;19;20132;-77
2022/05/07 02:44:06;;;;;;;3.60;2.67;;;;;7.70;94600.00;;;;7393047;19;20137;-77
2022/05/07 02:46:41;;;;;;;6.70;3.70;;;;;7.70;94596.00;;;;7392753;19;20137;-77
2022/05/07 02:49:10;;;;;;;3.70;2.80;;;;;7.70;94590.00;;;;7397399;19;20160;-77
2022/05/07 02:51:38;;;;;;;6.03;2.97;;;;;7.80;94595.00;;;;7393311;19;20616;-77
2022/05/07 02:54:12;;;;;;;6.73;3.27;;;;;7.90;94600.00;;;;7392927;19;20144;-77
2022/05/07 02:56:39;;;;;;;6.40;2.77;;;;;7.90;94596.00;;;;7392659;19;20173;-78
2022/05/07 02:59:07;;;;;;;3.87;2.63;;;;;7.90;94584.00;;;;7390421;19;20672;-77
2022/05/07 03:01:47;;;;;;;3.90;2.80;;;;;8.00;94590.00;;;;7392118;19;20152;-77
2022/05/07 03:04:15;;;;;;;4.50;2.90;;;;;7.90;94586.00;;;;7392545;19;20552;-77
2022/05/07 03:06:49;;;;;;;5.57;3.00;;;;;7.80;94591.00;;;;7392232;19;20758;-77
2022/05/07 03:09:16;;;;;;;5.47;3.07;;;;;7.90;94582.00;;;;7391975;19;20137;-77
2022/05/07 03:11:44;;;;;;;5.23;2.50;;;;;7.80;94590.00;;;;7394351;19;20157;-77
2022/05/07 03:14:18;;;;;;;6.60;2.80;;;;;7.70;94585.00;;;;7392904;19;20136;-77
2022/05/07 03:16:47;;;;;;;3.93;2.47;;;;;7.70;94578.00;;;;7391409;19;20137;-77
2022/05/07 03:19:15;;;;;;;4.17;2.57;;;;;7.90;94588.00;;;;7392972;19;20159;-77
2022/05/07 03:21:49;;;;;;;3.83;3.13;;;;;7.80;94590.00;;;;7390423;19;20152;-77
2022/05/07 03:24:16;;;;;;;3.77;2.77;;;;;7.70;94586.00;;;;7391789;19;20549;-77
2022/05/07 03:26:44;;;;;;;5.70;2.83;;;;;7.60;94577.00;;;;7390354;19;20165;-77
2022/05/07 03:29:18;;;;;;;5.03;3.17;;;;;7.60;94580.00;;;;7391283;19;20136;-77
2022/05/07 03:31:48;;;;;;;6.43;2.83;;;;;7.50;94581.00;;;;7395875;19;20161;-77
2022/05/07 03:34:16;;;;;;;8.10;3.67;;;;;7.50;94577.00;;;;7396086;19;20471;-77
2022/05/07 03:36:51;;;;;;;4.33;2.93;;;;;7.40;94574.00;;;;7391676;19;20133;-77
2022/05/07 03:39:18;;;;;;;4.17;2.80;;;;;7.50;94583.00;;;;7391105;19;20147;-77
2022/05/07 03:41:45;;;;;;;6.07;3.07;;;;;7.50;94583.00;;;;7389644;19;20600;-77
2022/05/07 03:44:20;;;;;;;4.57;3.07;;;;;7.40;94584.00;;;;7395490;19;20148;-78
2022/05/07 03:46:47;;;;;;;4.73;3.40;;;;;7.40;94572.00;;;;7393839;19;20536;-77
2022/05/07 03:49:15;;;;;;;5.00;3.20;;;;;7.30;94579.00;;;;7390463;19;20141;-77
2022/05/07 03:54:36;;;;;;;4.63;2.97;;;;;7.30;94590.00;;;;7391710;19;20616;-77
2022/05/07 03:57:13;;;;;;;4.30;3.03;;;;;7.40;94580.00;;;;7390873;19;20651;-77
2022/05/07 03:59:47;;;;;;;4.20;2.90;;;;;7.30;94581.00;;;;7385104;19;20157;-78
2022/05/07 04:02:32;;;;;;;6.03;2.77;;;;;7.30;94584.00;;;;7385547;19;20596;-78
2022/05/07 04:04:59;;;;;;;5.37;2.90;;;;;7.30;94587.00;;;;7390512;19;20128;-78
2022/05/07 04:07:34;;;;;;;7.17;3.17;;;;;7.30;94589.00;;;;7392448;19;20230;-77
2022/05/07 04:10:02;;;;;;;4.20;2.93;;;;;7.20;94588.00;;;;7390820;19;20168;-77
2022/05/07 04:12:31;;;;;;;3.80;2.93;;;;;7.40;94588.00;;;;7391927;19;20579;-77
2022/05/07 04:15:07;;;;;;;5.10;3.30;;;;;7.40;94594.00;;;;7390351;19;20606;-77
2022/05/07 04:17:34;;;;;;;4.73;2.90;;;;;7.50;94588.00;;;;7390101;19;20125;-77
2022/05/07 04:20:03;;;;;;;6.00;3.00;;;;;7.40;94585.00;;;;7389683;19;20156;-77
2022/05/07 04:22:37;;;;;;;6.50;3.40;;;;;7.50;94585.00;;;;7388035;19;20125;-77
2022/05/07 04:25:06;;;;;;;4.37;2.97;;;;;7.60;94581.00;;;;7388077;19;20149;-77
2022/05/07 04:27:40;;;;;;;5.40;3.50;;;;;7.60;94583.00;;;;7390318;19;20644;-77
2022/05/07 04:30:15;;;;;;;9.90;3.23;;;;;7.90;94591.00;;;;7390562;19;20654;-77
2022/05/07 04:32:42;;;;;;;8.83;3.10;;;;;8.00;94590.00;;;;7393527;19;20133;-78
2022/05/07 04:35:10;;;;;;;7.00;3.00;;;;;7.90;94590.00;;;;7392121;19;20129;-77
2022/05/07 04:37:44;;;;;;;5.67;3.10;;;;;8.00;94589.00;;;;7390663;19;20132;-78
2022/05/07 04:40:12;;;;;;;5.10;3.10;;;;;8.10;94589.00;;;;7396149;19;20125;-77
2022/05/07 04:42:41;;;;;;;7.47;2.73;;;;;8.10;94595.00;;;;7393657;19;20149;-77
2022/05/07 04:45:15;;;;;;;7.43;2.93;;;;;8.20;94591.00;;;;7397141;19;20627;-77
2022/05/07 04:47:43;;;;;;;5.43;2.83;;;;;8.20;94588.00;;;;7397789;19;20588;-77
2022/05/07 04:50:12;;;;;;;3.67;2.80;;;;;8.40;94595.00;;;;7396938;19;20769;-77
2022/05/07 04:52:47;;;;;;;4.60;2.40;;;;;8.50;94605.00;;;;7396909;19;20645;-77
2022/05/07 04:55:14;;;;;;;5.60;3.40;;;;;8.70;94597.00;;;;7396289;19;20185;-77
2022/05/07 04:57:42;;;;;;;4.97;3.27;;;;;8.90;94587.00;;;;7397549;19;20164;-77
2022/05/07 05:00:22;;;;;;;4.67;2.87;;;;;9.10;94590.00;;;;7393106;19;20189;-77
2022/05/07 05:02:50;;;;;;;5.83;2.50;;;;;9.20;94598.00;;;;7393759;19;20121;-77
2022/05/07 05:05:26;;;;;;;6.67;2.47;;;;;9.30;94591.00;;;;7396745;19;20140;-77
2022/05/07 05:07:54;;;;;;;5.00;2.80;;;;;9.40;94592.00;;;;7397089;19;20184;-77
2022/05/07 05:10:24;;;;;;;3.73;2.50;;;;;9.60;94596.00;;;;7394661;19;20171;-77
2022/05/07 05:12:58;;;;;;;5.00;2.60;;;;;9.80;94588.00;;;;7395949;19;20599;-78
2022/05/07 05:15:25;;;;;;;5.00;2.70;;;;;10.00;94607.00;;;;7395931;19;20584;-77
2022/05/07 05:17:53;;;;;;;4.80;2.60;;;;;10.20;94592.00;;;;7396831;19;20133;-77
2022/05/07 05:20:27;;;;;;;3.70;2.27;;;;;10.50;94595.00;;;;7397856;19;20180;-77
2022/05/07 05:22:54;;;;;;;3.23;2.60;;;;;10.60;94597.00;;;;7392915;19;20141;-77
2022/05/07 05:25:22;;;;;;;3.83;2.90;;;;;10.70;94604.00;;;;7396495;19;20628;-78
2022/05/07 05:27:56;;;;;;;6.13;2.40;;;;;11.10;94600.00;;;;7396220;19;20475;-77
2022/05/07 05:30:24;;;;;;;3.97;2.30;;;;;11.30;94594.00;;;;7395742;19;20125;-78
2022/05/07 05:32:52;;;;;;;11.00;2.77;;;;;11.60;94600.00;;;;7400312;19;20223;-78
2022/05/07 05:35:28;;;;;;;7.20;2.40;;;;;11.90;94598.00;;;;7396015;19;20116;-78
2022/05/07 05:37:56;;;;;;;4.63;2.20;;;;;12.10;94606.00;;;;7395780;19;20607;-77
2022/05/07 05:40:24;;;;;;;3.38;2.35;;;;;12.50;94599.00;;;;7396189;19;20628;-77
2022/05/07 05:42:58;;;;;;;3.40;2.60;;;;;12.60;94608.00;;;;7396657;19;20160;-77
2022/05/07 05:45:27;;;;;;;6.38;2.75;;;;;12.90;94607.00;;;;7401258;19;20148;-78
2022/05/07 05:47:55;;;;;;;7.00;2.60;;;;;13.00;94609.00;;;;7397395;19;20129;-77
2022/05/07 05:50:30;;;;;;;5.43;2.88;;;;;13.30;94612.00;;;;7394050;19;20140;-77
2022/05/07 05:52:58;;;;;;;2.88;2.55;;;;;14.00;94608.00;;;;7395253;19;20121;-77
2022/05/07 05:55:25;;;;;;;4.90;2.90;;;;;14.30;94611.00;;;;7393337;19;20141;-76
2022/05/07 05:58:13;;;;;;;4.57;2.80;;;;;14.30;94608.00;;;;7394170;19;20140;-77
2022/05/07 06:00:48;;;;;;;4.18;3.03;;;;;14.70;94612.00;;;;7396374;19;20145;-76
2022/05/07 06:03:22;;;;;;;6.72;2.88;;;;;15.00;94604.00;;;;7395002;19;20147;-76
2022/05/07 06:05:49;;;;;;;4.38;3.08;;;;;15.10;94605.00;;;;7394402;19;22113;-76
2022/05/07 06:08:17;;;;;;;8.45;3.15;;;;;15.10;94610.00;;;;7395792;19;20160;-76
2022/05/07 06:10:54;;;;;;;4.45;2.90;;;;;15.40;94609.00;;;;7396335;19;20172;-77
2022/05/07 06:13:23;;;;;;;4.97;3.58;;;;;15.90;94608.00;;;;7395116;19;20133;-77
2022/05/07 06:15:58;;;;;;;6.18;3.13;;;;;16.50;94606.00;;;;7394058;19;20631;-77
2022/05/07 06:18:26;;;;;;;4.65;3.15;;;;;16.80;94612.00;;;;7396086;19;20133;-77
2022/05/07 06:20:53;;;;;;;4.40;3.22;;;;;17.00;94601.00;;;;7395125;19;20492;-78
2022/05/07 06:23:28;;;;;;;7.20;2.88;;;;;16.90;94604.00;;;;7395265;19;20615;-78
2022/05/07 06:28:49;;;;;;;4.13;2.70;;;;;16.90;94615.00;;;;7396474;19;20153;-77
2022/05/07 06:31:17;;;;;;;4.43;3.33;;;;;16.60;94612.00;;;;7395670;19;20152;-77
2022/05/07 06:33:45;;;;;;;3.90;3.08;;;;;16.80;94620.00;;;;7397414;19;20796;-77
2022/05/07 06:36:20;;;;;;;8.57;3.55;;;;;17.00;94618.00;;;;7396303;19;20136;-77
2022/05/07 06:38:47;;;;;;;4.15;2.80;;;;;16.90;94616.00;;;;7397259;19;20140;-77
2022/05/07 06:41:15;;;;;;;3.88;2.83;;;;;17.10;94609.00;;;;7392874;19;20141;-78
2022/05/07 06:43:49;;;;;;;2.97;2.60;;;;;17.20;94617.00;;;;7395212;19;20790;-78
2022/05/07 06:46:16;;;;;;;5.63;2.90;;;;;17.50;94625.00;;;;7395864;19;20152;-78
2022/05/07 06:48:44;;;;;;;5.50;3.00;;;;;17.70;94623.00;;;;7395629;19;20146;-78
2022/05/07 06:51:18;;;;;;;4.65;2.75;;;;;17.70;94620.00;;;;7393549;19;20125;-78
2022/05/07 06:53:46;;;;;;;2.95;2.65;;;;;17.80;94627.00;;;;7395392;19;20160;-78
2022/05/07 06:56:13;;;;;;;4.05;2.78;;;;;18.10;94629.00;;;;7396054;19;20169;-78
2022/05/07 06:59:02;;;;;;;4.13;2.90;;;;;18.30;94619.00;;;;7395975;19;20153;-78
2022/05/07 07:01:37;;;;;;;5.72;2.70;;;;;18.60;94627.00;;;;7390787;19;20168;-79
2022/05/07 07:04:12;;;;;;;8.77;3.03;;;;;18.80;94627.00;;;;7392632;19;20163;-79
2022/05/07 07:06:40;;;;;;;3.30;2.80;;;;;18.90;94628.00;;;;7394502;19;20148;-79
2022/05/07 07:09:07;;;;;;;3.25;2.60;;;;;18.60;94635.00;;;;7394420;19;20141;-79
2022/05/07 07:11:42;;;;;;;5.60;2.80;;;;;18.80;94627.00;;;;7393792;19;20128;-78
2022/05/07 07:14:10;;;;;;;4.22;3.28;;;;;19.00;94623.00;;;;7393091;19;20145;-78
2022/05/07 07:16:37;;;;;;;3.03;2.63;;;;;18.60;94629.00;;;;7393843;19;20156;-79
2022/05/07 07:19:15;;;;;;;3.78;2.60;;;;;19.10;94632.00;;;;7395147;19;20211;-79
2022/05/07 07:21:44;;;;;;;5.03;2.80;;;;;19.80;94637.00;;;;7393821;19;20152;-79
2022/05/07 07:24:11;;;;;;;3.10;2.00;;;;;20.10;94626.00;;;;7392043;19;20627;-78
2022/05/07 07:26:46;;;;;;;4.55;2.75;;;;;20.30;94625.00;;;;7395308;19;20152;-78
2022/05/07 07:29:13;;;;;;;3.20;2.35;;;;;20.10;94622.00;;;;7397815;19;20196;-79
2022/05/07 07:31:41;;;;;;;5.50;2.67;;;;;19.80;94625.00;;;;7395007;19;20157;-78
2022/05/07 07:34:15;;;;;;;4.05;2.67;;;;;20.30;94625.00;;;;7395830;19;20483;-78
2022/05/07 07:36:46;;;;;;;4.35;2.60;;;;;20.40;94628.00;;;;7395656;19;20184;-79
2022/05/07 07:39:14;;;;;;;3.58;2.50;;;;;19.50;94631.00;;;;7397762;19;20117;-78
2022/05/07 07:41:49;;;;;;;7.63;2.70;;;;;20.00;94630.00;;;;7395705;19;20607;-79
2022/05/07 07:44:16;;;;;;;3.38;2.35;;;;;20.20;94630.00;;;;7395953;19;20161;-78
2022/05/07 07:49:37;;;;;;;5.32;2.83;;;;;20.10;94634.00;;;;7395060;19;20147;-78
2022/05/07 07:52:05;;;;;;;7.07;2.45;;;;;19.70;94630.00;;;;7393151;19;20157;-78
2022/05/07 07:54:36;;;;;;;2.95;2.63;;;;;20.10;94631.00;;;;7394675;19;20160;-79
2022/05/07 07:57:11;;;;;;;5.78;2.55;;;;;20.40;94634.00;;;;7393361;19;20512;-79
2022/05/07 07:59:44;;;;;;;2.67;2.47;;;;;20.80;94639.00;;;;7387164;19;20149;-79
2022/05/07 08:02:19;;;;;;;3.42;2.55;;;;;20.90;94623.00;;;;7386455;19;20598;-79
2022/05/07 08:04:47;;;;;;;3.70;2.80;;;;;21.00;94628.00;;;;7386561;19;20724;-79
2022/05/07 08:12:56;;;;;;;3.45;2.72;;;;;21.50;94633.00;;;;7391038;19;20153;-80
2022/05/07 08:15:30;;;;;;;3.20;2.80;;;;;22.30;94626.00;;;;7395330;19;20160;-78
2022/05/07 08:17:57;;;;;;;4.45;2.88;;;;;22.20;94627.00;;;;7396506;19;20169;-79
2022/05/07 08:20:25;;;;;;;4.80;2.92;;;;;22.00;94635.00;;;;7396044;19;20120;-79
2022/05/07 08:22:59;;;;;;;6.25;2.67;;;;;22.00;94625.00;;;;7391100;19;20189;-79
2022/05/07 08:25:26;;;;;;;4.30;2.80;;;;;22.00;94628.00;;;;7392404;19;20611;-78
2022/05/07 08:27:57;;;;;;;4.40;3.03;;;;;21.90;94631.00;;;;7391878;19;20129;-79
2022/05/07 08:30:31;;;;;;;9.98;3.15;;;;;22.80;94628.00;;;;7391707;19;20137;-79
2022/05/07 08:32:59;;;;;;;6.55;3.20;;;;;23.30;94622.00;;;;7393432;19;20137;-79
2022/05/07 08:35:26;;;;;;;4.32;2.95;;;;;23.20;94625.00;;;;7392701;19;20145;-78
2022/05/07 08:38:01;;;;;;;3.42;2.63;;;;;23.50;94626.00;;;;7397800;19;20488;-78
2022/05/07 08:40:28;;;;;;;6.78;3.00;;;;;24.10;94619.00;;;;7399266;19;20124;-79
2022/05/07 08:42:59;;;;;;;4.22;2.58;;;;;25.00;94605.00;;;;7397381;19;20154;-79
2022/05/07 08:45:35;;;;;;;5.72;3.13;;;;;24.90;94613.00;;;;7398177;19;20499;-80
2022/05/07 08:48:03;;;;;;;4.68;3.42;;;;;24.80;94611.00;;;;7396066;19;20148;-78
2022/05/07 08:50:31;;;;;;;5.45;2.25;;;;;24.70;94621.00;;;;7397611;19;20587;-78
2022/05/07 08:53:05;;;;;;;4.00;2.90;;;;;24.50;94621.00;;;;7396442;19;20144;-77
2022/05/07 08:55:33;;;;;;;2.60;2.40;;;;;25.10;94628.00;;;;7397827;19;20489;-79
2022/05/07 08:58:01;;;;;;;7.20;2.58;;;;;24.90;94622.00;;;;7398135;19;20488;-79
2022/05/07 09:00:45;;;;;;;3.78;2.67;;;;;24.00;94645.00;;;;7393733;19;20187;-77
2022/05/07 09:03:16;;;;;;;3.15;1.98;;;;;21.90;94633.00;;;;7394509;19;20156;-78
2022/05/07 09:05:50;;;;;;;4.50;2.53;;;;;23.00;94625.00;;;;7396518;19;20176;-78
2022/05/07 09:08:26;;;;;;;3.97;2.60;;;;;23.80;94624.00;;;;7397514;19;20154;-79
2022/05/07 09:11:00;;;;;;;5.32;2.80;;;;;24.60;94616.00;;;;7397631;19;20516;-79
2022/05/07 09:13:35;;;;;;;4.88;2.13;;;;;24.80;94621.00;;;;7396330;19;20125;-78
2022/05/07 09:16:10;;;;;;;5.00;2.17;;;;;24.90;94608.00;;;;7396044;19;20139;-78
2022/05/07 09:18:38;;;;;;;11.95;2.22;;;;;24.50;94605.00;;;;7398055;19;20135;-78
2022/05/07 09:24:03;;;;;;;6.75;2.45;;;;;25.40;94621.00;;;;7394116;19;20132;-79
2022/05/07 09:26:30;;;;;;;107.00;13.50;;;;;25.40;94615.00;;;;7394400;19;20140;-83
2022/05/07 09:29:08;;;;;;;4.68;2.33;;;;;25.80;94611.00;;;;7396419;19;20721;-78
2022/05/07 09:31:37;;;;;;;3.53;1.85;;;;;25.40;94614.00;;;;7398696;19;20149;-78
2022/05/07 09:37:20;;;;;;;4.82;2.10;;;;;25.80;94612.00;;;;7396099;19;20141;-79
2022/05/07 09:39:54;;;;;;;2.13;1.80;;;;;26.20;94614.00;;;;7396247;19;20140;-78
2022/05/07 09:42:24;;;;;;;5.28;1.83;;;;;27.10;94606.00;;;;7394194;19;20137;-79
2022/05/07 09:44:52;;;;;;;2.70;1.75;;;;;25.40;94635.00;;;;7395477;19;20180;-79
2022/05/07 09:47:27;;;;;;;4.53;1.85;;;;;24.50;94602.00;;;;7399150;19;20152;-78
2022/05/07 09:58:48;;;;;;;5.95;2.08;;;;;24.30;94622.00;;;;7394378;19;20165;-80
2022/05/07 10:01:51;;;;;;;4.38;2.20;;;;;24.80;94617.00;;;;7394527;19;20141;-78
2022/05/07 10:04:41;;;;;;;5.18;2.13;;;;;26.20;94621.00;;;;7394768;19;20141;-79
2022/05/07 10:07:37;;;;;;;4.55;2.53;;;;;25.90;94620.00;;;;7394050;19;20133;-78
2022/05/07 10:10:25;;;;;;;4.00;2.38;;;;;26.70;94614.00;;;;7395020;19;20491;-78
2022/05/07 10:12:59;;;;;;;2.67;2.22;;;;;25.30;94615.00;;;;7395885;19;20129;-78
2022/05/07 10:15:33;;;;;;;5.63;1.90;;;;;26.00;94632.00;;;;7395601;19;20607;-80
2022/05/07 10:18:07;;;;;;;3.67;2.13;;;;;26.10;94606.00;;;;7395066;19;20129;-80
2022/05/07 10:20:46;;;;;;;4.07;2.22;;;;;26.30;94605.00;;;;7396146;19;20151;-80
2022/05/07 10:23:26;;;;;;;3.58;1.88;;;;;26.90;94613.00;;;;7394224;19;20511;-79
2022/05/07 10:26:02;;;;;;;4.00;1.80;;;;;26.70;94609.00;;;;7397804;19;20465;-79
2022/05/07 10:28:41;;;;;;;2.65;2.00;;;;;25.50;94624.00;;;;7398777;19;20183;-78
2022/05/07 10:31:22;;;;;;;2.92;1.92;;;;;25.00;94614.00;;;;7395818;19;20133;-79
2022/05/07 10:33:51;;;;;;;3.72;1.90;;;;;25.00;94614.00;;;;7394940;19;20168;-78
2022/05/07 10:36:37;;;;;;;4.82;2.13;;;;;25.30;94628.00;;;;7392858;19;20162;-78
2022/05/07 10:39:09;;;;;;;3.03;2.00;;;;;24.80;94607.00;;;;7392114;19;20615;-78
2022/05/07 10:41:47;;;;;;;5.25;2.05;;;;;24.90;94612.00;;;;7393370;19;20148;-79
2022/05/07 10:44:31;;;;;;;2.95;2.20;;;;;25.20;94615.00;;;;7392293;19;20160;-79
2022/05/07 10:47:10;;;;;;;2.72;2.13;;;;;26.50;94608.00;;;;7396187;19;20643;-79
2022/05/07 10:49:50;;;;;;;2.20;2.00;;;;;25.80;94612.00;;;;7396018;19;20121;-79
2022/05/07 10:52:40;;;;;;;4.72;2.30;;;;;26.00;94605.00;;;;7395100;19;20237;-79
2022/05/07 10:55:11;;;;;;;2.50;2.30;;;;;25.60;94599.00;;;;7397153;19;20173;-78
2022/05/07 10:57:48;;;;;;;4.55;2.22;;;;;25.60;94608.00;;;;7393810;19;20192;-79
2022/05/07 11:00:23;;;;;;;5.47;2.20;;;;;24.90;94603.00;;;;7391849;19;20189;-80
2022/05/07 11:03:00;;;;;;;3.67;2.45;;;;;25.10;94628.00;;;;7393112;19;20589;-78
2022/05/07 11:05:35;;;;;;;2.97;2.03;;;;;25.10;94591.00;;;;7391764;19;20588;-79
2022/05/07 11:08:09;;;;;;;5.55;2.03;;;;;26.60;94593.00;;;;7394828;19;20132;-78
2022/05/07 11:10:37;;;;;;;4.97;2.30;;;;;27.60;94587.00;;;;7395440;19;20188;-80
2022/05/07 11:13:07;;;;;;;4.43;2.92;;;;;27.50;94587.00;;;;7394582;19;20133;-78
2022/05/07 11:15:41;;;;;;;3.08;2.50;;;;;28.10;94587.00;;;;7393093;19;20120;-79
2022/05/07 11:18:16;;;;;;;5.90;2.85;;;;;28.00;94581.00;;;;7394067;19;20141;-77
2022/05/07 11:21:03;;;;;;;5.90;2.35;;;;;27.80;94591.00;;;;7393118;19;20128;-78
2022/05/07 11:23:36;;;;;;;6.25;2.80;;;;;26.00;94607.00;;;;7391526;19;20621;-78
2022/05/07 11:26:16;;;;;;;3.20;2.45;;;;;26.80;94585.00;;;;7394450;19;20160;-78
2022/05/07 11:28:45;;;;;;;3.20;2.50;;;;;27.50;94584.00;;;;7392679;19;20132;-77
2022/05/07 11:31:34;;;;;;;4.20;2.50;;;;;27.10;94587.00;;;;7392663;19;20156;-79
2022/05/07 11:34:07;;;;;;;5.70;2.53;;;;;28.10;94582.00;;;;7392820;19;20627;-78
2022/05/07 11:36:41;;;;;;;2.90;2.30;;;;;26.90;94606.00;;;;7395882;19;20440;-78
2022/05/07 11:39:17;;;;;;;3.22;2.22;;;;;24.10;94620.00;;;;7389801;19;20460;-78
2022/05/07 11:41:57;;;;;;;4.22;2.60;;;;;24.20;94614.00;;;;7395491;19;20141;-77
2022/05/07 11:47:23;;;;;;;4.43;2.38;;;;;21.20;94628.00;;;;7392699;19;20117;-79
2022/05/07 11:50:07;;;;;;;4.45;2.50;;;;;21.10;94616.00;;;;7391505;19;20141;-79
2022/05/07 11:52:42;;;;;;;3.20;2.30;;;;;21.50;94599.00;;;;7393675;19;20667;-79
2022/05/07 11:55:10;;;;;;;4.47;2.13;;;;;22.30;94627.00;;;;7391533;19;20148;-80
2022/05/07 11:57:38;;;;;;;2.38;2.00;;;;;22.10;94583.00;;;;7390509;19;20152;-80
2022/05/07 12:00:34;;;;;;;3.25;1.92;;;;;23.40;94586.00;;;;7385414;19;20172;-79
2022/05/07 12:03:09;;;;;;;3.38;2.25;;;;;24.70;94582.00;;;;7386753;19;20164;-79
2022/05/07 12:05:45;;;;;;;4.97;2.53;;;;;25.20;94575.00;;;;7385874;19;20147;-80
2022/05/07 12:08:14;;;;;;;5.00;2.67;;;;;26.10;94568.00;;;;7388394;19;20132;-79
2022/05/07 12:10:42;;;;;;;3.10;2.33;;;;;26.40;94561.00;;;;7389756;19;20638;-80
2022/05/07 12:13:18;;;;;;;4.13;2.33;;;;;26.30;94560.00;;;;7386544;19;20137;-79
2022/05/07 12:18:46;;;;;;;4.40;2.30;;;;;27.80;94560.00;;;;7393091;19;20136;-79
2022/05/07 12:21:14;;;;;;;3.45;2.20;;;;;28.50;94547.00;;;;7390979;19;20599;-78
2022/05/07 12:32:09;;;;;;;3.88;2.22;;;;;23.60;94599.00;;;;7391674;19;20145;-78
2022/05/07 12:34:36;;;;;;;3.90;2.22;;;;;22.10;94605.00;;;;7387186;19;20159;-79
2022/05/07 12:37:04;;;;;;;4.80;2.30;;;;;21.80;94568.00;;;;7385632;19;20165;-78
2022/05/07 12:39:41;;;;;;;3.47;1.88;;;;;23.90;94582.00;;;;7389316;19;20529;-78
2022/05/07 12:42:10;;;;;;;4.60;2.30;;;;;22.70;94601.00;;;;7387363;19;20557;-80
2022/05/07 12:44:46;;;;;;;3.70;2.40;;;;;21.80;94574.00;;;;7385553;19;20513;-77
2022/05/07 12:47:14;;;;;;;8.60;3.30;;;;;23.40;94579.00;;;;7387091;19;20171;-78
2022/05/07 12:49:42;;;;;;;5.28;2.33;;;;;24.90;94552.00;;;;7386963;19;20137;-78
2022/05/07 12:52:16;;;;;;;4.10;2.42;;;;;26.00;94545.00;;;;7387469;19;20140;-78
2022/05/07 12:54:44;;;;;;;2.50;2.22;;;;;25.40;94575.00;;;;7386995;19;20137;-79
2022/05/07 12:57:11;;;;;;;9.57;2.35;;;;;23.70;94574.00;;;;7386602;19;20136;-78
2022/05/07 12:59:58;;;;;;;6.15;2.63;;;;;22.50;94586.00;;;;7384812;19;20168;-78
2022/05/07 13:02:37;;;;;;;5.57;2.33;;;;;23.70;94548.00;;;;7394069;19;20164;-79
2022/05/07 13:05:11;;;;;;;4.85;2.00;;;;;25.10;94546.00;;;;7392992;19;20137;-79
2022/05/07 13:07:39;;;;;;;5.05;2.17;;;;;25.50;94567.00;;;;7393860;19;20148;-78
2022/05/07 13:10:07;;;;;;;11.45;2.63;;;;;23.30;94578.00;;;;7395531;19;20504;-77
2022/05/07 13:12:42;;;;;;;14.68;2.40;;;;;22.10;94547.00;;;;7393257;19;20148;-80
2022/05/07 13:15:10;;;;;;;4.43;2.15;;;;;23.70;94540.00;;;;7392601;19;20840;-78
2022/05/07 13:17:37;;;;;;;3.92;1.90;;;;;25.10;94542.00;;;;7392647;19;20141;-78
2022/05/07 13:20:11;;;;;;;3.70;2.10;;;;;25.40;94534.00;;;;7392719;19;20152;-78
2022/05/07 13:22:39;;;;;;;2.55;1.80;;;;;25.90;94532.00;;;;7394679;19;20626;-78
2022/05/07 13:25:07;;;;;;;3.55;1.80;;;;;25.00;94559.00;;;;7392014;19;20608;-79
2022/05/07 13:27:41;;;;;;;4.05;1.88;;;;;23.30;94567.00;;;;7391577;19;20133;-79
2022/05/07 13:30:09;;;;;;;2.75;1.77;;;;;22.50;94547.00;;;;7391182;19;20626;-78
2022/05/07 13:32:37;;;;;;;5.65;2.17;;;;;24.00;94538.00;;;;7393091;19;20152;-78
2022/05/07 13:35:13;;;;;;;5.32;1.88;;;;;25.30;94523.00;;;;7391906;19;20128;-78
2022/05/07 13:37:41;;;;;;;3.63;1.95;;;;;25.40;94551.00;;;;7390488;19;20152;-78